sensor_id;sensor_type;location;lat;lon;timestamp;pressure;altitude;pressure_sealevel;temperature;humidity
73242;BME280;65659;49.234;-2.094;2023-03-31T00:01:12;98487.24;;;24.06;30.54
73242;BME280;65659;49.234;-2.094;2023-03-31T00:03:38;98497.06;;;24.07;30.51
73242;BME280;65659;49.234;-2.094;2023-03-31T00:06:04;98488.05;;;24.05;30.50
73242;BME280;65659;49.234;-2.094;2023-03-31T00:08:31;98473.43;;;24.30;30.49
73242;BME280;65659;49.234;-2.094;2023-03-31T00:10:58;98470.08;;;24.31;30.44
73242;BME280;65659;49.234;-2.094;2023-03-31T00:13:22;98460.98;;;24.30;30.43
73242;BME280;65659;49.234;-2.094;2023-03-31T00:15:47;98453.02;;;24.04;30.40
73242;BME280;65659;49.234;-2.094;2023-03-31T00:18:12;98448.14;;;24.25;30.37
73242;BME280;65659;49.234;-2.094;2023-03-31T00:20:38;98450.71;;;24.20;30.39
73242;BME280;65659;49.234;-2.094;2023-03-31T00:23:04;98442.32;;;23.92;30.36
73242;BME280;65659;49.234;-2.094;2023-03-31T00:25:29;98445.35;;;24.14;30.37
73242;BME280;65659;49.234;-2.094;2023-03-31T00:27:55;98447.08;;;24.12;30.32
73242;BME280;65659;49.234;-2.094;2023-03-31T00:30:21;98436.34;;;24.13;30.25
73242;BME280;65659;49.234;-2.094;2023-03-31T00:32:46;98433.42;;;24.12;30.21
73242;BME280;65659;49.234;-2.094;2023-03-31T00:35:12;98421.86;;;23.88;30.12
73242;BME280;65659;49.234;-2.094;2023-03-31T00:37:38;98409.02;;;24.12;30.15
73242;BME280;65659;49.234;-2.094;2023-03-31T00:40:05;98419.03;;;23.85;30.14
73242;BME280;65659;49.234;-2.094;2023-03-31T00:42:29;98424.55;;;24.07;30.16
73242;BME280;65659;49.234;-2.094;2023-03-31T00:47:20;98414.00;;;23.87;30.16
73242;BME280;65659;49.234;-2.094;2023-03-31T00:49:47;98416.88;;;24.12;30.12
73242;BME280;65659;49.234;-2.094;2023-03-31T00:52:15;98408.56;;;24.18;30.09
73242;BME280;65659;49.234;-2.094;2023-03-31T00:54:38;98406.71;;;24.33;29.96
73242;BME280;65659;49.234;-2.094;2023-03-31T00:57:04;98407.49;;;24.36;29.93
73242;BME280;65659;49.234;-2.094;2023-03-31T00:59:30;98395.54;;;24.10;29.94
73242;BME280;65659;49.234;-2.094;2023-03-31T01:01:55;98390.78;;;24.43;29.83
73242;BME280;65659;49.234;-2.094;2023-03-31T01:04:20;98390.59;;;24.22;29.74
73242;BME280;65659;49.234;-2.094;2023-03-31T01:06:53;98381.05;;;24.18;29.75
73242;BME280;65659;49.234;-2.094;2023-03-31T01:09:12;98380.25;;;24.19;29.64
73242;BME280;65659;49.234;-2.094;2023-03-31T01:11:36;98380.49;;;24.40;29.57
73242;BME280;65659;49.234;-2.094;2023-03-31T01:14:02;98375.14;;;24.34;29.49
73242;BME280;65659;49.234;-2.094;2023-03-31T01:16:28;98372.29;;;24.23;29.44
73242;BME280;65659;49.234;-2.094;2023-03-31T01:18:54;98368.14;;;24.19;29.55
73242;BME280;65659;49.234;-2.094;2023-03-31T01:21:43;98361.46;;;24.16;29.55
73242;BME280;65659;49.234;-2.094;2023-03-31T01:23:58;98353.95;;;24.23;29.42
73242;BME280;65659;49.234;-2.094;2023-03-31T01:26:26;98358.81;;;24.36;29.26
73242;BME280;65659;49.234;-2.094;2023-03-31T01:28:40;98356.32;;;24.24;29.06
73242;BME280;65659;49.234;-2.094;2023-03-31T01:31:24;98362.63;;;24.21;29.09
73242;BME280;65659;49.234;-2.094;2023-03-31T01:33:43;98357.84;;;24.45;29.08
73242;BME280;65659;49.234;-2.094;2023-03-31T01:36:07;98362.64;;;24.43;29.08
73242;BME280;65659;49.234;-2.094;2023-03-31T01:40:56;98361.25;;;24.21;28.89
73242;BME280;65659;49.234;-2.094;2023-03-31T01:43:15;98374.68;;;24.34;28.90
73242;BME280;65659;49.234;-2.094;2023-03-31T01:45:46;98360.08;;;24.33;28.92
73242;BME280;65659;49.234;-2.094;2023-03-31T01:48:07;98347.67;;;24.25;28.82
73242;BME280;65659;49.234;-2.094;2023-03-31T01:50:29;98353.17;;;24.01;28.84
73242;BME280;65659;49.234;-2.094;2023-03-31T01:52:58;98339.32;;;24.24;28.76
73242;BME280;65659;49.234;-2.094;2023-03-31T01:55:21;98340.61;;;24.14;28.85
73242;BME280;65659;49.234;-2.094;2023-03-31T01:57:48;98343.10;;;23.54;28.92
73242;BME280;65659;49.234;-2.094;2023-03-31T02:00:12;98341.61;;;23.96;28.88
73242;BME280;65659;49.234;-2.094;2023-03-31T02:02:38;98334.51;;;23.86;28.92
73242;BME280;65659;49.234;-2.094;2023-03-31T02:05:06;98327.39;;;23.82;28.85
73242;BME280;65659;49.234;-2.094;2023-03-31T02:07:31;98334.66;;;23.84;28.68
73242;BME280;65659;49.234;-2.094;2023-03-31T02:09:56;98330.70;;;23.82;28.52
73242;BME280;65659;49.234;-2.094;2023-03-31T02:12:20;98327.60;;;23.67;28.72
73242;BME280;65659;49.234;-2.094;2023-03-31T02:14:46;98321.99;;;23.50;28.93
73242;BME280;65659;49.234;-2.094;2023-03-31T02:17:14;98311.19;;;23.41;29.02
73242;BME280;65659;49.234;-2.094;2023-03-31T02:19:38;98311.84;;;23.42;28.97
73242;BME280;65659;49.234;-2.094;2023-03-31T02:22:02;98311.13;;;23.39;29.04
73242;BME280;65659;49.234;-2.094;2023-03-31T02:24:27;98306.07;;;23.33;29.26
73242;BME280;65659;49.234;-2.094;2023-03-31T02:26:56;98304.54;;;23.33;29.25
73242;BME280;65659;49.234;-2.094;2023-03-31T02:29:18;98307.62;;;23.26;29.25
73242;BME280;65659;49.234;-2.094;2023-03-31T02:31:47;98307.03;;;23.18;29.26
73242;BME280;65659;49.234;-2.094;2023-03-31T02:34:09;98299.83;;;23.11;29.23
73242;BME280;65659;49.234;-2.094;2023-03-31T02:36:35;98330.62;;;23.51;29.41
73242;BME280;65659;49.234;-2.094;2023-03-31T02:39:05;98311.81;;;23.14;29.66
73242;BME280;65659;49.234;-2.094;2023-03-31T02:41:26;98329.13;;;23.25;29.95
73242;BME280;65659;49.234;-2.094;2023-03-31T02:43:52;98315.96;;;22.88;30.16
73242;BME280;65659;49.234;-2.094;2023-03-31T02:46:17;98310.34;;;23.02;30.28
73242;BME280;65659;49.234;-2.094;2023-03-31T02:48:45;98311.25;;;22.93;30.43
73242;BME280;65659;49.234;-2.094;2023-03-31T02:51:28;98304.47;;;23.07;30.57
73242;BME280;65659;49.234;-2.094;2023-03-31T02:53:44;98296.26;;;22.89;30.56
73242;BME280;65659;49.234;-2.094;2023-03-31T02:56:08;98300.66;;;22.86;30.62
73242;BME280;65659;49.234;-2.094;2023-03-31T02:58:35;98291.15;;;22.64;30.62
73242;BME280;65659;49.234;-2.094;2023-03-31T03:01:02;98295.11;;;22.67;30.64
73242;BME280;65659;49.234;-2.094;2023-03-31T03:03:26;98293.87;;;22.77;30.80
73242;BME280;65659;49.234;-2.094;2023-03-31T03:05:47;98293.07;;;22.71;30.94
73242;BME280;65659;49.234;-2.094;2023-03-31T03:08:16;98278.16;;;22.62;30.92
73242;BME280;65659;49.234;-2.094;2023-03-31T03:10:38;98274.93;;;22.60;30.95
73242;BME280;65659;49.234;-2.094;2023-03-31T03:13:05;98267.75;;;22.47;31.05
73242;BME280;65659;49.234;-2.094;2023-03-31T03:15:29;98279.70;;;22.63;31.04
73242;BME280;65659;49.234;-2.094;2023-03-31T03:17:50;98270.54;;;22.38;30.92
73242;BME280;65659;49.234;-2.094;2023-03-31T03:20:19;98274.04;;;22.51;30.98
73242;BME280;65659;49.234;-2.094;2023-03-31T03:22:42;98268.80;;;22.17;30.93
73242;BME280;65659;49.234;-2.094;2023-03-31T03:25:08;98275.31;;;22.26;31.03
73242;BME280;65659;49.234;-2.094;2023-03-31T03:27:32;98271.90;;;22.11;31.30
73242;BME280;65659;49.234;-2.094;2023-03-31T03:29:57;98265.53;;;22.24;31.51
73242;BME280;65659;49.234;-2.094;2023-03-31T03:32:23;98271.27;;;22.10;31.66
73242;BME280;65659;49.234;-2.094;2023-03-31T03:34:49;98267.97;;;21.99;31.80
73242;BME280;65659;49.234;-2.094;2023-03-31T03:37:14;98251.88;;;21.89;31.79
73242;BME280;65659;49.234;-2.094;2023-03-31T03:39:39;98256.17;;;21.83;32.04
73242;BME280;65659;49.234;-2.094;2023-03-31T03:42:05;98262.83;;;21.76;32.11
73242;BME280;65659;49.234;-2.094;2023-03-31T03:44:30;98235.01;;;21.70;32.19
73242;BME280;65659;49.234;-2.094;2023-03-31T03:46:56;98247.93;;;21.63;32.37
73242;BME280;65659;49.234;-2.094;2023-03-31T03:49:21;98238.25;;;21.61;32.43
73242;BME280;65659;49.234;-2.094;2023-03-31T03:51:47;98232.28;;;21.57;32.51
73242;BME280;65659;49.234;-2.094;2023-03-31T03:54:12;98224.64;;;21.53;32.49
73242;BME280;65659;49.234;-2.094;2023-03-31T03:56:38;98230.22;;;21.51;32.55
73242;BME280;65659;49.234;-2.094;2023-03-31T03:59:03;98222.57;;;21.48;32.56
73242;BME280;65659;49.234;-2.094;2023-03-31T04:01:29;98225.06;;;21.44;32.55
73242;BME280;65659;49.234;-2.094;2023-03-31T04:03:54;98222.80;;;21.45;32.56
73242;BME280;65659;49.234;-2.094;2023-03-31T04:06:20;98234.87;;;21.39;32.50
73242;BME280;65659;49.234;-2.094;2023-03-31T04:08:46;98222.04;;;21.60;32.49
73242;BME280;65659;49.234;-2.094;2023-03-31T04:11:13;98232.15;;;21.26;32.54
73242;BME280;65659;49.234;-2.094;2023-03-31T04:13:37;98236.05;;;21.49;32.52
73242;BME280;65659;49.234;-2.094;2023-03-31T04:16:03;98239.04;;;21.63;32.50
73242;BME280;65659;49.234;-2.094;2023-03-31T04:18:27;98224.32;;;21.28;32.36
73242;BME280;65659;49.234;-2.094;2023-03-31T04:20:53;98231.26;;;21.26;32.39
73242;BME280;65659;49.234;-2.094;2023-03-31T04:23:20;98226.19;;;21.16;32.36
73242;BME280;65659;49.234;-2.094;2023-03-31T04:25:45;98222.05;;;21.30;32.37
73242;BME280;65659;49.234;-2.094;2023-03-31T04:28:10;98223.36;;;21.16;32.49
73242;BME280;65659;49.234;-2.094;2023-03-31T04:30:35;98219.53;;;21.12;32.49
73242;BME280;65659;49.234;-2.094;2023-03-31T04:33:02;98224.18;;;21.29;32.45
73242;BME280;65659;49.234;-2.094;2023-03-31T04:35:28;98233.32;;;20.81;32.61
73242;BME280;65659;49.234;-2.094;2023-03-31T04:37:52;98230.10;;;21.03;32.68
73242;BME280;65659;49.234;-2.094;2023-03-31T04:40:17;98228.03;;;21.04;32.63
73242;BME280;65659;49.234;-2.094;2023-03-31T04:42:43;98231.83;;;21.02;32.58
73242;BME280;65659;49.234;-2.094;2023-03-31T04:45:09;98225.35;;;21.01;32.57
73242;BME280;65659;49.234;-2.094;2023-03-31T04:47:33;98227.41;;;21.21;32.61
73242;BME280;65659;49.234;-2.094;2023-03-31T04:49:58;98219.76;;;20.97;32.68
73242;BME280;65659;49.234;-2.094;2023-03-31T04:52:24;98214.36;;;20.92;32.77
73242;BME280;65659;49.234;-2.094;2023-03-31T04:54:50;98224.83;;;20.65;32.85
73242;BME280;65659;49.234;-2.094;2023-03-31T04:57:16;98227.18;;;20.65;32.94
73242;BME280;65659;49.234;-2.094;2023-03-31T04:59:41;98210.04;;;20.89;32.95
73242;BME280;65659;49.234;-2.094;2023-03-31T05:02:07;98221.81;;;21.08;32.86
73242;BME280;65659;49.234;-2.094;2023-03-31T05:04:32;98225.17;;;20.59;32.83
73242;BME280;65659;49.234;-2.094;2023-03-31T05:06:58;98236.81;;;21.05;32.87
73242;BME280;65659;49.234;-2.094;2023-03-31T05:09:23;98229.78;;;20.79;32.90
73242;BME280;65659;49.234;-2.094;2023-03-31T05:11:49;98244.94;;;20.82;32.89
73242;BME280;65659;49.234;-2.094;2023-03-31T05:14:14;98232.76;;;21.07;32.92
73242;BME280;65659;49.234;-2.094;2023-03-31T05:16:40;98233.73;;;21.04;32.87
73242;BME280;65659;49.234;-2.094;2023-03-31T05:19:05;98231.39;;;20.85;32.88
73242;BME280;65659;49.234;-2.094;2023-03-31T05:21:30;98223.03;;;20.64;32.91
73242;BME280;65659;49.234;-2.094;2023-03-31T05:23:56;98233.16;;;20.94;32.89
73242;BME280;65659;49.234;-2.094;2023-03-31T05:26:22;98231.69;;;21.08;32.77
73242;BME280;65659;49.234;-2.094;2023-03-31T05:28:46;98237.98;;;20.89;32.75
73242;BME280;65659;49.234;-2.094;2023-03-31T05:31:11;98230.99;;;20.96;32.73
73242;BME280;65659;49.234;-2.094;2023-03-31T05:33:37;98242.80;;;20.96;32.72
73242;BME280;65659;49.234;-2.094;2023-03-31T05:36:03;98236.95;;;20.98;32.76
73242;BME280;65659;49.234;-2.094;2023-03-31T05:38:28;98236.78;;;21.33;32.68
73242;BME280;65659;49.234;-2.094;2023-03-31T05:40:54;98243.55;;;21.15;32.67
73242;BME280;65659;49.234;-2.094;2023-03-31T05:43:19;98265.13;;;21.37;32.69
73242;BME280;65659;49.234;-2.094;2023-03-31T05:45:45;98245.16;;;21.09;32.71
73242;BME280;65659;49.234;-2.094;2023-03-31T05:48:11;98254.23;;;20.58;32.60
73242;BME280;65659;49.234;-2.094;2023-03-31T05:50:37;98254.70;;;21.09;32.54
73242;BME280;65659;49.234;-2.094;2023-03-31T05:53:03;98259.74;;;21.09;32.50
73242;BME280;65659;49.234;-2.094;2023-03-31T05:55:28;98256.25;;;21.08;32.47
73242;BME280;65659;49.234;-2.094;2023-03-31T05:57:54;98254.72;;;21.09;32.43
73242;BME280;65659;49.234;-2.094;2023-03-31T06:00:19;98275.39;;;20.92;32.39
73242;BME280;65659;49.234;-2.094;2023-03-31T06:02:44;98259.54;;;21.19;32.37
73242;BME280;65659;49.234;-2.094;2023-03-31T06:05:10;98263.35;;;21.26;32.27
73242;BME280;65659;49.234;-2.094;2023-03-31T06:07:35;98265.05;;;21.32;32.14
73242;BME280;65659;49.234;-2.094;2023-03-31T06:10:00;98258.35;;;21.27;32.15
73242;BME280;65659;49.234;-2.094;2023-03-31T06:12:25;98274.75;;;21.04;32.18
73242;BME280;65659;49.234;-2.094;2023-03-31T06:14:51;98267.73;;;21.32;32.19
73242;BME280;65659;49.234;-2.094;2023-03-31T06:17:16;98275.14;;;21.09;32.16
73242;BME280;65659;49.234;-2.094;2023-03-31T06:19:42;98276.19;;;21.32;32.15
73242;BME280;65659;49.234;-2.094;2023-03-31T06:22:07;98285.72;;;21.01;32.18
73242;BME280;65659;49.234;-2.094;2023-03-31T06:24:33;98287.52;;;21.01;32.17
73242;BME280;65659;49.234;-2.094;2023-03-31T06:26:58;98283.88;;;21.03;32.18
73242;BME280;65659;49.234;-2.094;2023-03-31T06:29:24;98291.90;;;20.86;32.16
73242;BME280;65659;49.234;-2.094;2023-03-31T06:31:50;98292.03;;;21.18;32.08
73242;BME280;65659;49.234;-2.094;2023-03-31T06:34:15;98286.25;;;21.45;32.12
73242;BME280;65659;49.234;-2.094;2023-03-31T06:36:41;98304.11;;;20.94;32.11
73242;BME280;65659;49.234;-2.094;2023-03-31T06:39:06;98309.41;;;21.03;32.04
73242;BME280;65659;49.234;-2.094;2023-03-31T06:41:32;98307.20;;;21.02;32.01
73242;BME280;65659;49.234;-2.094;2023-03-31T06:43:58;98300.76;;;21.00;31.94
73242;BME280;65659;49.234;-2.094;2023-03-31T06:46:23;98299.78;;;20.99;31.97
73242;BME280;65659;49.234;-2.094;2023-03-31T06:48:48;98299.76;;;21.05;31.86
73242;BME280;65659;49.234;-2.094;2023-03-31T06:51:14;98307.54;;;21.20;31.67
73242;BME280;65659;49.234;-2.094;2023-03-31T06:53:39;98306.96;;;21.01;31.67
73242;BME280;65659;49.234;-2.094;2023-03-31T06:56:05;98314.07;;;21.17;31.53
73242;BME280;65659;49.234;-2.094;2023-03-31T06:58:29;98310.18;;;21.32;31.46
73242;BME280;65659;49.234;-2.094;2023-03-31T07:00:55;98304.72;;;21.14;31.33
73242;BME280;65659;49.234;-2.094;2023-03-31T07:03:20;98313.23;;;21.31;31.13
73242;BME280;65659;49.234;-2.094;2023-03-31T07:05:48;98325.02;;;21.39;30.96
73242;BME280;65659;49.234;-2.094;2023-03-31T07:08:11;98309.36;;;21.42;30.86
73242;BME280;65659;49.234;-2.094;2023-03-31T07:10:37;98320.38;;;21.54;30.76
73242;BME280;65659;49.234;-2.094;2023-03-31T07:13:02;98315.26;;;21.50;30.92
73242;BME280;65659;49.234;-2.094;2023-03-31T07:15:28;98308.44;;;21.63;30.84
73242;BME280;65659;49.234;-2.094;2023-03-31T07:17:55;98318.07;;;21.58;30.78
73242;BME280;65659;49.234;-2.094;2023-03-31T07:20:19;98315.38;;;21.34;30.78
73242;BME280;65659;49.234;-2.094;2023-03-31T07:22:46;98327.10;;;21.43;30.65
73242;BME280;65659;49.234;-2.094;2023-03-31T07:25:12;98323.06;;;21.24;30.55
73242;BME280;65659;49.234;-2.094;2023-03-31T07:27:36;98333.37;;;21.31;30.42
73242;BME280;65659;49.234;-2.094;2023-03-31T07:30:01;98338.92;;;21.96;30.46
73242;BME280;65659;49.234;-2.094;2023-03-31T07:32:27;98336.97;;;21.61;30.21
73242;BME280;65659;49.234;-2.094;2023-03-31T07:34:53;98342.40;;;21.76;30.05
73242;BME280;65659;49.234;-2.094;2023-03-31T07:37:18;98352.44;;;21.44;29.84
73242;BME280;65659;49.234;-2.094;2023-03-31T07:39:44;98352.99;;;21.35;29.58
73242;BME280;65659;49.234;-2.094;2023-03-31T07:42:09;98355.47;;;21.67;29.47
73242;BME280;65659;49.234;-2.094;2023-03-31T07:44:34;98363.26;;;21.56;29.33
73242;BME280;65659;49.234;-2.094;2023-03-31T07:47:01;98368.77;;;21.43;29.16
73242;BME280;65659;49.234;-2.094;2023-03-31T07:49:25;98391.73;;;21.61;28.99
73242;BME280;65659;49.234;-2.094;2023-03-31T07:51:51;98384.96;;;22.15;28.88
73242;BME280;65659;49.234;-2.094;2023-03-31T07:54:17;98384.92;;;21.83;28.93
73242;BME280;65659;49.234;-2.094;2023-03-31T07:56:42;98382.29;;;21.90;28.80
73242;BME280;65659;49.234;-2.094;2023-03-31T07:59:08;98386.92;;;21.67;28.72
73242;BME280;65659;49.234;-2.094;2023-03-31T08:01:33;98387.90;;;21.71;28.54
73242;BME280;65659;49.234;-2.094;2023-03-31T08:03:58;98382.18;;;21.48;28.33
73242;BME280;65659;49.234;-2.094;2023-03-31T08:06:25;98397.76;;;21.62;28.16
73242;BME280;65659;49.234;-2.094;2023-03-31T08:08:51;98390.99;;;21.90;28.09
73242;BME280;65659;49.234;-2.094;2023-03-31T08:11:16;98393.37;;;21.42;28.02
73242;BME280;65659;49.234;-2.094;2023-03-31T08:13:41;98415.97;;;21.72;27.95
73242;BME280;65659;49.234;-2.094;2023-03-31T08:16:07;98420.83;;;22.01;27.98
73242;BME280;65659;49.234;-2.094;2023-03-31T08:18:32;98415.98;;;21.74;28.13
73242;BME280;65659;49.234;-2.094;2023-03-31T08:20:58;98420.22;;;21.93;28.34
73242;BME280;65659;49.234;-2.094;2023-03-31T08:23:23;98414.46;;;21.48;28.42
73242;BME280;65659;49.234;-2.094;2023-03-31T08:25:49;98421.48;;;21.98;28.43
73242;BME280;65659;49.234;-2.094;2023-03-31T08:28:15;98419.04;;;21.79;28.45
73242;BME280;65659;49.234;-2.094;2023-03-31T08:30:41;98427.32;;;22.11;28.46
73242;BME280;65659;49.234;-2.094;2023-03-31T08:33:06;98433.07;;;21.63;28.71
73242;BME280;65659;49.234;-2.094;2023-03-31T08:35:31;98424.86;;;22.14;28.87
73242;BME280;65659;49.234;-2.094;2023-03-31T08:37:57;98455.09;;;22.14;29.02
73242;BME280;65659;49.234;-2.094;2023-03-31T08:40:26;98429.82;;;21.70;28.96
73242;BME280;65659;49.234;-2.094;2023-03-31T08:42:50;98431.85;;;21.99;28.87
73242;BME280;65659;49.234;-2.094;2023-03-31T08:45:19;98442.66;;;22.00;28.79
73242;BME280;65659;49.234;-2.094;2023-03-31T08:47:40;98452.04;;;22.13;28.67
73242;BME280;65659;49.234;-2.094;2023-03-31T08:50:07;98439.36;;;21.88;28.56
73242;BME280;65659;49.234;-2.094;2023-03-31T08:52:33;98464.99;;;21.85;28.51
73242;BME280;65659;49.234;-2.094;2023-03-31T08:54:57;98453.57;;;21.90;28.41
73242;BME280;65659;49.234;-2.094;2023-03-31T08:57:25;98463.02;;;21.89;28.30
73242;BME280;65659;49.234;-2.094;2023-03-31T08:59:47;98468.92;;;21.92;28.18
73242;BME280;65659;49.234;-2.094;2023-03-31T09:02:20;98476.62;;;22.40;28.22
73242;BME280;65659;49.234;-2.094;2023-03-31T09:04:44;98482.01;;;21.95;28.20
73242;BME280;65659;49.234;-2.094;2023-03-31T09:07:09;98488.89;;;22.20;28.20
73242;BME280;65659;49.234;-2.094;2023-03-31T09:09:35;98498.77;;;21.91;28.35
73242;BME280;65659;49.234;-2.094;2023-03-31T09:11:55;98503.23;;;22.15;28.47
73242;BME280;65659;49.234;-2.094;2023-03-31T09:14:25;98517.21;;;21.89;28.60
73242;BME280;65659;49.234;-2.094;2023-03-31T09:16:48;98514.25;;;21.88;28.62
73242;BME280;65659;49.234;-2.094;2023-03-31T09:19:15;98509.35;;;22.30;28.66
73242;BME280;65659;49.234;-2.094;2023-03-31T09:21:38;98518.22;;;22.05;28.63
73242;BME280;65659;49.234;-2.094;2023-03-31T09:24:05;98508.53;;;21.79;28.62
73242;BME280;65659;49.234;-2.094;2023-03-31T09:26:32;98517.87;;;21.76;28.70
73242;BME280;65659;49.234;-2.094;2023-03-31T09:28:53;98529.66;;;22.00;28.69
73242;BME280;65659;49.234;-2.094;2023-03-31T09:31:19;98529.72;;;21.68;28.73
73242;BME280;65659;49.234;-2.094;2023-03-31T09:33:45;98527.22;;;22.00;28.68
73242;BME280;65659;49.234;-2.094;2023-03-31T09:36:14;98529.71;;;22.07;28.59
73242;BME280;65659;49.234;-2.094;2023-03-31T09:38:34;98535.47;;;21.91;28.49
73242;BME280;65659;49.234;-2.094;2023-03-31T09:41:01;98527.77;;;21.97;28.37
73242;BME280;65659;49.234;-2.094;2023-03-31T09:43:27;98540.31;;;22.11;28.21
73242;BME280;65659;49.234;-2.094;2023-03-31T09:45:51;98542.03;;;22.44;28.06
73242;BME280;65659;49.234;-2.094;2023-03-31T09:48:18;98535.82;;;22.46;28.01
73242;BME280;65659;49.234;-2.094;2023-03-31T09:50:44;98537.47;;;22.23;27.99
73242;BME280;65659;49.234;-2.094;2023-03-31T09:53:13;98553.67;;;22.24;28.01
73242;BME280;65659;49.234;-2.094;2023-03-31T09:55:39;98556.67;;;22.34;27.93
73242;BME280;65659;49.234;-2.094;2023-03-31T09:58:00;98563.72;;;22.38;27.85
73242;BME280;65659;49.234;-2.094;2023-03-31T10:00:26;98556.64;;;22.31;27.80
73242;BME280;65659;49.234;-2.094;2023-03-31T10:02:50;98561.57;;;22.38;27.78
73242;BME280;65659;49.234;-2.094;2023-03-31T10:05:26;98559.73;;;22.40;27.81
73242;BME280;65659;49.234;-2.094;2023-03-31T10:07:41;98564.59;;;22.46;27.75
73242;BME280;65659;49.234;-2.094;2023-03-31T10:10:10;98567.21;;;22.50;27.69
73242;BME280;65659;49.234;-2.094;2023-03-31T10:12:32;98570.08;;;22.28;27.66
73242;BME280;65659;49.234;-2.094;2023-03-31T10:15:14;98580.69;;;22.59;27.57
73242;BME280;65659;49.234;-2.094;2023-03-31T10:17:24;98585.72;;;22.61;27.56
73242;BME280;65659;49.234;-2.094;2023-03-31T10:19:50;98591.62;;;22.62;27.84
73242;BME280;65659;49.234;-2.094;2023-03-31T10:22:17;98588.01;;;22.36;27.99
73242;BME280;65659;49.234;-2.094;2023-03-31T10:24:42;98598.93;;;22.35;28.08
73242;BME280;65659;49.234;-2.094;2023-03-31T10:27:12;98596.62;;;22.55;28.13
73242;BME280;65659;49.234;-2.094;2023-03-31T10:29:31;98604.54;;;22.61;28.08
73242;BME280;65659;49.234;-2.094;2023-03-31T10:32:01;98610.87;;;22.71;28.00
73242;BME280;65659;49.234;-2.094;2023-03-31T10:34:22;98623.10;;;22.68;28.00
73242;BME280;65659;49.234;-2.094;2023-03-31T10:36:47;98620.80;;;22.47;27.83
73242;BME280;65659;49.234;-2.094;2023-03-31T10:39:15;98630.53;;;22.81;27.81
73242;BME280;65659;49.234;-2.094;2023-03-31T10:41:38;98633.11;;;22.59;27.66
73242;BME280;65659;49.234;-2.094;2023-03-31T10:44:04;98643.12;;;22.95;27.57
73242;BME280;65659;49.234;-2.094;2023-03-31T10:46:39;98646.60;;;22.80;27.49
73242;BME280;65659;49.234;-2.094;2023-03-31T10:48:54;98634.61;;;23.09;27.40
73242;BME280;65659;49.234;-2.094;2023-03-31T10:51:24;98642.51;;;22.69;27.33
73242;BME280;65659;49.234;-2.094;2023-03-31T10:53:47;98647.64;;;22.69;27.28
73242;BME280;65659;49.234;-2.094;2023-03-31T10:56:25;98669.62;;;22.67;27.25
73242;BME280;65659;49.234;-2.094;2023-03-31T10:58:49;98666.40;;;22.92;27.16
73242;BME280;65659;49.234;-2.094;2023-03-31T11:01:10;98660.72;;;22.92;27.19
73242;BME280;65659;49.234;-2.094;2023-03-31T11:03:44;98672.43;;;22.71;27.19
73242;BME280;65659;49.234;-2.094;2023-03-31T11:05:55;98675.59;;;22.95;27.20
73242;BME280;65659;49.234;-2.094;2023-03-31T11:08:32;98666.73;;;23.13;27.33
73242;BME280;65659;49.234;-2.094;2023-03-31T11:10:56;98679.72;;;23.12;27.50
73242;BME280;65659;49.234;-2.094;2023-03-31T11:13:15;98682.93;;;23.04;27.67
73242;BME280;65659;49.234;-2.094;2023-03-31T11:15:39;98689.97;;;22.53;27.71
73242;BME280;65659;49.234;-2.094;2023-03-31T11:18:11;98686.77;;;22.99;27.66
73242;BME280;65659;49.234;-2.094;2023-03-31T11:20:30;98690.97;;;23.07;27.61
73242;BME280;65659;49.234;-2.094;2023-03-31T11:22:57;98688.12;;;22.81;27.63
73242;BME280;65659;49.234;-2.094;2023-03-31T11:25:24;98693.45;;;23.02;27.61
73242;BME280;65659;49.234;-2.094;2023-03-31T11:27:58;98684.93;;;22.82;27.53
73242;BME280;65659;49.234;-2.094;2023-03-31T11:30:15;98704.95;;;23.08;27.54
73242;BME280;65659;49.234;-2.094;2023-03-31T11:32:46;98706.27;;;22.75;27.49
73242;BME280;65659;49.234;-2.094;2023-03-31T11:35:10;98707.60;;;23.27;27.46
73242;BME280;65659;49.234;-2.094;2023-03-31T11:37:36;98704.23;;;22.94;27.36
73242;BME280;65659;49.234;-2.094;2023-03-31T11:40:08;98712.24;;;23.24;27.27
73242;BME280;65659;49.234;-2.094;2023-03-31T11:42:20;98721.78;;;23.23;27.29
73242;BME280;65659;49.234;-2.094;2023-03-31T11:44:47;98726.30;;;22.80;27.31
73242;BME280;65659;49.234;-2.094;2023-03-31T11:47:13;98725.79;;;23.06;27.36
73242;BME280;65659;49.234;-2.094;2023-03-31T11:49:38;98733.72;;;23.22;27.43
73242;BME280;65659;49.234;-2.094;2023-03-31T11:52:01;98725.12;;;23.44;27.43
73242;BME280;65659;49.234;-2.094;2023-03-31T11:54:30;98735.67;;;23.45;27.37
73242;BME280;65659;49.234;-2.094;2023-03-31T11:56:51;98736.50;;;23.25;27.37
73242;BME280;65659;49.234;-2.094;2023-03-31T11:59:18;98749.22;;;23.53;27.35
73242;BME280;65659;49.234;-2.094;2023-03-31T12:01:46;98742.13;;;23.41;27.24
73242;BME280;65659;49.234;-2.094;2023-03-31T12:04:13;98743.77;;;23.49;27.12
73242;BME280;65659;49.234;-2.094;2023-03-31T12:06:36;98755.49;;;23.27;27.02
73242;BME280;65659;49.234;-2.094;2023-03-31T12:09:06;98754.94;;;23.48;26.87
73242;BME280;65659;49.234;-2.094;2023-03-31T12:11:28;98760.77;;;23.52;26.86
73242;BME280;65659;49.234;-2.094;2023-03-31T12:13:52;98769.87;;;23.49;26.96
73242;BME280;65659;49.234;-2.094;2023-03-31T12:16:18;98778.57;;;23.51;27.05
73242;BME280;65659;49.234;-2.094;2023-03-31T12:18:43;98776.94;;;23.22;27.20
73242;BME280;65659;49.234;-2.094;2023-03-31T12:21:07;98778.52;;;23.71;27.29
73242;BME280;65659;49.234;-2.094;2023-03-31T12:23:35;98784.11;;;23.65;27.47
73242;BME280;65659;49.234;-2.094;2023-03-31T12:26:03;98793.58;;;23.58;27.64
73242;BME280;65659;49.234;-2.094;2023-03-31T12:28:23;98786.41;;;23.67;27.63
73242;BME280;65659;49.234;-2.094;2023-03-31T12:30:48;98792.52;;;23.42;27.63
73242;BME280;65659;49.234;-2.094;2023-03-31T12:33:18;98790.60;;;23.54;27.56
73242;BME280;65659;49.234;-2.094;2023-03-31T12:35:47;98802.23;;;23.71;27.44
73242;BME280;65659;49.234;-2.094;2023-03-31T12:38:15;98803.34;;;23.72;27.45
73242;BME280;65659;49.234;-2.094;2023-03-31T12:40:37;98800.81;;;23.76;27.22
73242;BME280;65659;49.234;-2.094;2023-03-31T12:43:13;98801.52;;;23.62;27.08
73242;BME280;65659;49.234;-2.094;2023-03-31T12:45:26;98794.92;;;23.78;27.00